createdAt,value
2017-01-15T00:00:08.636Z,0
2017-01-15T00:01:09.426Z,0
2017-01-15T00:02:10.161Z,0
2017-01-15T00:03:10.906Z,0
2017-01-15T00:04:11.667Z,0
2017-01-15T00:05:12.407Z,0
2017-01-15T00:06:13.173Z,0
2017-01-15T00:07:13.920Z,0
2017-01-15T00:08:14.663Z,0
2017-01-15T00:09:15.433Z,0
2017-01-15T00:10:16.219Z,0
2017-01-15T00:11:16.987Z,0
2017-01-15T00:12:17.766Z,0
2017-01-15T00:13:18.575Z,0
2017-01-15T00:14:19.332Z,0
2017-01-15T00:15:20.109Z,0
2017-01-15T00:16:20.858Z,0
2017-01-15T00:17:21.609Z,0
2017-01-15T00:18:22.365Z,0
2017-01-15T00:19:23.095Z,0
2017-01-15T00:20:23.841Z,0
2017-01-15T00:21:24.603Z,0
2017-01-15T00:22:25.345Z,0
2017-01-15T00:23:26.092Z,0
2017-01-15T00:24:26.847Z,0
2017-01-15T00:25:27.597Z,0
2017-01-15T00:26:28.357Z,0
2017-01-15T00:27:29.096Z,0
2017-01-15T00:28:29.841Z,0
2017-01-15T00:29:30.594Z,0
2017-01-15T00:30:31.408Z,0
2017-01-15T00:31:32.163Z,0
2017-01-15T00:32:32.927Z,0
2017-01-15T00:33:33.667Z,0
2017-01-15T00:34:34.495Z,0
2017-01-15T00:35:35.293Z,0
2017-01-15T00:36:36.048Z,0
2017-01-15T00:37:36.799Z,0
2017-01-15T00:38:37.532Z,0
2017-01-15T00:39:38.285Z,0
2017-01-15T00:40:39.051Z,0
2017-01-15T00:41:39.817Z,0
2017-01-15T00:42:40.581Z,0
2017-01-15T00:43:41.393Z,0
2017-01-15T00:44:42.127Z,0
2017-01-15T00:45:42.888Z,0
2017-01-15T00:46:43.628Z,0
2017-01-15T00:47:44.385Z,0
2017-01-15T00:48:45.134Z,0
2017-01-15T00:49:45.890Z,0
2017-01-15T00:50:46.618Z,0
2017-01-15T00:51:47.405Z,0
2017-01-15T00:52:48.160Z,0
2017-01-15T00:53:48.919Z,0
2017-01-15T00:54:49.706Z,0
2017-01-15T00:55:50.427Z,0
2017-01-15T00:56:51.173Z,0
2017-01-15T00:57:51.925Z,0
2017-01-15T00:58:52.678Z,0
2017-01-15T00:59:53.411Z,0
2017-01-15T01:00:54.161Z,0
2017-01-15T01:01:54.918Z,0
2017-01-15T01:02:55.684Z,0
2017-01-15T01:03:56.482Z,0
2017-01-15T01:04:57.235Z,0
2017-01-15T01:05:58.003Z,0
2017-01-15T01:06:58.731Z,0
2017-01-15T01:07:59.472Z,0
2017-01-15T01:09:00.223Z,0
2017-01-15T01:10:00.978Z,0
2017-01-15T01:11:01.718Z,0
2017-01-15T01:12:02.479Z,0
2017-01-15T01:13:03.238Z,0
2017-01-15T01:14:03.984Z,0
2017-01-15T01:15:04.752Z,0
2017-01-15T01:16:05.524Z,0
2017-01-15T01:17:06.304Z,0
2017-01-15T01:18:07.064Z,0
2017-01-15T01:19:07.815Z,0
2017-01-15T01:20:08.550Z,0
2017-01-15T01:21:09.295Z,0
2017-01-15T01:22:10.027Z,0
2017-01-15T01:23:10.793Z,0
2017-01-15T01:24:11.540Z,0
2017-01-15T01:25:12.297Z,0
2017-01-15T01:26:13.042Z,0
2017-01-15T01:27:13.781Z,0
2017-01-15T01:28:14.538Z,0
2017-01-15T01:29:15.275Z,0
2017-01-15T01:30:16.055Z,0
2017-01-15T01:31:16.824Z,0
2017-01-15T01:32:17.565Z,0
2017-01-15T01:33:18.314Z,0
2017-01-15T01:34:19.094Z,0
2017-01-15T01:35:19.849Z,0
2017-01-15T01:36:20.587Z,0
2017-01-15T01:37:21.339Z,0
2017-01-15T01:38:22.089Z,0
2017-01-15T01:39:22.835Z,0
2017-01-15T01:40:23.584Z,0
2017-01-15T01:41:24.304Z,0
2017-01-15T01:42:25.090Z,0
2017-01-15T01:43:25.857Z,0
2017-01-15T01:44:26.606Z,0
2017-01-15T01:45:27.381Z,0
2017-01-15T01:46:28.126Z,0
2017-01-15T01:47:28.895Z,0
2017-01-15T01:48:29.633Z,0
2017-01-15T01:49:30.386Z,0
2017-01-15T01:50:31.139Z,0
2017-01-15T01:51:31.886Z,0
2017-01-15T01:52:32.655Z,0
2017-01-15T01:53:33.410Z,0
2017-01-15T01:54:34.222Z,0
2017-01-15T01:55:34.966Z,0
2017-01-15T01:56:35.711Z,0
2017-01-15T01:57:36.456Z,0
2017-01-15T01:58:37.202Z,0
2017-01-15T01:59:37.955Z,0
2017-01-15T02:00:38.741Z,0
2017-01-15T02:01:39.501Z,0
2017-01-15T02:02:40.254Z,0
2017-01-15T02:03:41.023Z,0
2017-01-15T02:04:41.770Z,0
2017-01-15T02:05:42.506Z,0
2017-01-15T02:06:43.249Z,0
2017-01-15T02:07:44.005Z,0
2017-01-15T02:08:44.751Z,0
2017-01-15T02:09:45.496Z,0
2017-01-15T02:10:46.261Z,0
2017-01-15T02:11:47.004Z,0
2017-01-15T02:12:47.775Z,0
2017-01-15T02:13:48.543Z,0
2017-01-15T02:14:49.279Z,0
2017-01-15T02:15:50.021Z,0
2017-01-15T02:16:50.780Z,0
2017-01-15T02:17:51.532Z,0
2017-01-15T02:18:52.277Z,0
2017-01-15T02:19:53.065Z,0
2017-01-15T02:20:53.828Z,0
2017-01-15T02:21:54.563Z,0
2017-01-15T02:22:55.330Z,0
2017-01-15T02:23:56.085Z,0
2017-01-15T02:24:56.859Z,0
2017-01-15T02:25:57.620Z,0
2017-01-15T02:26:58.371Z,0
2017-01-15T02:27:59.107Z,0
2017-01-15T02:28:59.865Z,0
2017-01-15T02:30:00.619Z,0
2017-01-15T02:31:01.378Z,0
2017-01-15T02:32:02.110Z,0
2017-01-15T02:33:02.863Z,0
2017-01-15T02:34:03.608Z,0
2017-01-15T02:35:04.361Z,0
2017-01-15T02:36:05.168Z,0
2017-01-15T02:37:12.503Z,0
2017-01-15T02:38:13.244Z,0
2017-01-15T02:39:13.985Z,0
2017-01-15T02:40:14.730Z,0
2017-01-15T02:41:15.485Z,0
2017-01-15T02:42:16.241Z,0
2017-01-15T02:43:17.048Z,0
2017-01-15T02:44:17.807Z,0
2017-01-15T02:45:18.545Z,0
2017-01-15T02:46:19.300Z,0
2017-01-15T02:47:20.050Z,0
2017-01-15T02:48:20.820Z,0
2017-01-15T02:49:21.568Z,0
2017-01-15T02:50:22.331Z,0
2017-01-15T02:51:23.141Z,0
2017-01-15T02:52:24.643Z,0
2017-01-15T02:53:25.956Z,0
2017-01-15T02:54:26.705Z,0
2017-01-15T02:55:27.443Z,0
2017-01-15T02:56:28.202Z,0
2017-01-15T02:57:28.957Z,0
2017-01-15T02:58:29.746Z,0
2017-01-15T02:59:30.504Z,0
2017-01-15T03:00:31.243Z,0
2017-01-15T03:01:31.990Z,0
2017-01-15T03:02:32.746Z,0
2017-01-15T03:03:33.483Z,0
2017-01-15T03:04:34.241Z,0
2017-01-15T03:05:34.989Z,0
2017-01-15T03:06:35.743Z,0
2017-01-15T03:07:36.491Z,0
2017-01-15T03:08:37.246Z,0
2017-01-15T03:09:37.991Z,0
2017-01-15T03:10:38.745Z,0
2017-01-15T03:11:39.529Z,0
2017-01-15T03:12:40.273Z,0
2017-01-15T03:13:41.043Z,0
2017-01-15T03:14:41.789Z,0
2017-01-15T03:15:42.539Z,0
2017-01-15T03:16:43.268Z,0
2017-01-15T03:17:44.033Z,0
2017-01-15T03:18:44.787Z,0
2017-01-15T03:19:45.529Z,0
2017-01-15T03:20:46.276Z,0
2017-01-15T03:21:47.047Z,0
2017-01-15T03:22:47.798Z,0
2017-01-15T03:23:48.542Z,0
2017-01-15T03:24:49.300Z,0
2017-01-15T03:25:50.062Z,0
2017-01-15T03:26:50.808Z,0
2017-01-15T03:27:51.559Z,0
2017-01-15T03:28:52.365Z,0
2017-01-15T03:29:53.149Z,0
2017-01-15T03:30:53.904Z,0
2017-01-15T03:31:54.659Z,0
2017-01-15T03:32:55.407Z,0
2017-01-15T03:33:56.159Z,0
2017-01-15T03:34:56.920Z,0
2017-01-15T03:35:57.676Z,0
2017-01-15T03:36:58.429Z,0
2017-01-15T03:37:59.176Z,0
2017-01-15T03:38:59.926Z,0
2017-01-15T03:40:00.661Z,0
2017-01-15T03:41:01.448Z,0
2017-01-15T03:42:02.191Z,0
2017-01-15T03:43:02.945Z,0
2017-01-15T03:44:03.691Z,0
2017-01-15T03:45:04.450Z,0
2017-01-15T03:46:05.186Z,0
2017-01-15T03:47:05.949Z,0
2017-01-15T03:48:06.677Z,0
2017-01-15T03:49:07.447Z,0
2017-01-15T03:50:08.179Z,0
2017-01-15T03:51:08.956Z,0
2017-01-15T03:52:09.732Z,0
2017-01-15T03:53:10.471Z,0
2017-01-15T03:54:11.228Z,0
2017-01-15T03:55:11.976Z,0
2017-01-15T03:56:12.719Z,0
2017-01-15T03:57:13.525Z,0
2017-01-15T03:58:14.272Z,0
2017-01-15T03:59:15.061Z,0
2017-01-15T04:00:15.828Z,0
2017-01-15T04:01:16.581Z,0
2017-01-15T04:02:17.357Z,0
2017-01-15T04:03:18.104Z,0
2017-01-15T04:04:18.864Z,0
2017-01-15T04:05:19.603Z,0
2017-01-15T04:06:20.356Z,0
2017-01-15T04:07:21.100Z,0
2017-01-15T04:08:21.841Z,0
2017-01-15T04:09:22.596Z,0
2017-01-15T04:10:23.351Z,0
2017-01-15T04:11:24.099Z,0
2017-01-15T04:12:24.842Z,0
2017-01-15T04:13:25.648Z,0
2017-01-15T04:14:26.380Z,0
2017-01-15T04:15:27.136Z,0
2017-01-15T04:16:27.887Z,0
2017-01-15T04:17:28.640Z,0
2017-01-15T04:18:29.488Z,0
2017-01-15T04:19:30.243Z,0
2017-01-15T04:20:30.989Z,0
2017-01-15T04:21:31.745Z,0
2017-01-15T04:22:32.490Z,0
2017-01-15T04:23:33.249Z,0
2017-01-15T04:24:34.022Z,0
2017-01-15T04:25:34.764Z,0
2017-01-15T04:26:35.506Z,0
2017-01-15T04:27:36.266Z,0
2017-01-15T04:28:37.016Z,0
2017-01-15T04:29:37.745Z,0
2017-01-15T04:30:38.512Z,0
2017-01-15T04:31:39.263Z,0
2017-01-15T04:32:40.018Z,0
2017-01-15T04:33:40.765Z,0
2017-01-15T04:34:41.511Z,0
2017-01-15T04:35:42.273Z,0
2017-01-15T04:36:43.006Z,0
2017-01-15T04:37:43.756Z,0
2017-01-15T04:38:44.497Z,0
2017-01-15T04:39:45.251Z,0
2017-01-15T04:40:45.999Z,0
2017-01-15T04:41:46.756Z,0
2017-01-15T04:42:47.506Z,0
2017-01-15T04:43:48.238Z,0
2017-01-15T04:44:49.006Z,0
2017-01-15T04:45:49.756Z,0
2017-01-15T04:46:50.527Z,0
2017-01-15T04:47:51.262Z,0
2017-01-15T04:48:52.033Z,0
2017-01-15T04:49:52.797Z,0
2017-01-15T04:50:53.534Z,0
2017-01-15T04:51:54.271Z,0
2017-01-15T04:52:55.050Z,0
2017-01-15T04:53:55.783Z,0
2017-01-15T04:54:56.534Z,0
2017-01-15T04:55:57.287Z,0
2017-01-15T04:56:58.042Z,0
2017-01-15T04:57:58.780Z,0
2017-01-15T04:58:59.553Z,0
2017-01-15T05:00:00.312Z,0
2017-01-15T05:01:01.118Z,0
2017-01-15T05:02:01.887Z,0
2017-01-15T05:03:02.685Z,0
2017-01-15T05:04:03.425Z,0
2017-01-15T05:05:04.707Z,0
2017-01-15T05:06:05.533Z,0
2017-01-15T05:07:06.593Z,0
2017-01-15T05:08:07.142Z,0
2017-01-15T05:09:07.892Z,0
2017-01-15T05:10:08.647Z,0
2017-01-15T05:11:09.417Z,0
2017-01-15T05:12:10.176Z,0
2017-01-15T05:13:11.000Z,0
2017-01-15T05:14:11.763Z,0
2017-01-15T05:15:12.527Z,0
2017-01-15T05:16:13.260Z,0
2017-01-15T05:17:14.003Z,0
2017-01-15T05:18:14.755Z,0
2017-01-15T05:19:15.539Z,0
2017-01-15T05:20:16.302Z,0
2017-01-15T05:21:17.085Z,0
2017-01-15T05:22:17.854Z,0
2017-01-15T05:23:18.592Z,0
2017-01-15T05:24:19.339Z,0
2017-01-15T05:25:20.095Z,0
2017-01-15T05:26:20.848Z,0
2017-01-15T05:27:21.609Z,0
2017-01-15T05:28:22.410Z,0
2017-01-15T05:29:23.169Z,0
2017-01-15T05:30:23.926Z,0
2017-01-15T05:31:24.681Z,0
2017-01-15T05:32:25.456Z,0
2017-01-15T05:33:26.229Z,0
2017-01-15T05:34:26.981Z,0
2017-01-15T05:35:27.721Z,0
2017-01-15T05:36:28.494Z,0
2017-01-15T05:37:29.285Z,0
2017-01-15T05:38:30.036Z,0
2017-01-15T05:39:30.787Z,0
2017-01-15T05:40:31.549Z,0
2017-01-15T05:41:32.327Z,0
2017-01-15T05:42:33.092Z,0
2017-01-15T05:43:33.875Z,0
2017-01-15T05:44:34.607Z,0
2017-01-15T05:45:35.402Z,0
2017-01-15T05:46:36.167Z,0
2017-01-15T05:47:36.932Z,0
2017-01-15T05:48:37.741Z,0
2017-01-15T05:49:38.454Z,0
2017-01-15T05:50:39.224Z,0
2017-01-15T05:51:40.017Z,0
2017-01-15T05:52:40.819Z,0
2017-01-15T05:53:41.526Z,0
2017-01-15T05:54:42.292Z,0
2017-01-15T05:55:43.046Z,0
2017-01-15T05:56:43.830Z,0
2017-01-15T05:57:44.584Z,0
2017-01-15T05:58:45.343Z,0
2017-01-15T05:59:46.107Z,0
2017-01-15T06:00:46.852Z,0
2017-01-15T06:01:47.611Z,0
2017-01-15T06:02:48.362Z,0
2017-01-15T06:03:49.140Z,0
2017-01-15T06:04:49.875Z,0
2017-01-15T06:05:50.628Z,0
2017-01-15T06:06:51.376Z,0
2017-01-15T06:07:52.137Z,0
2017-01-15T06:08:52.888Z,0
2017-01-15T06:09:53.644Z,0
2017-01-15T06:10:54.399Z,0
2017-01-15T06:11:55.157Z,0
2017-01-15T06:12:55.905Z,0
2017-01-15T06:13:56.647Z,0
2017-01-15T06:14:57.403Z,0
2017-01-15T06:15:58.140Z,0
2017-01-15T06:16:58.875Z,0
2017-01-15T06:17:59.637Z,0
2017-01-15T06:19:00.372Z,0
2017-01-15T06:20:01.122Z,0
2017-01-15T06:21:01.872Z,0
2017-01-15T06:22:02.608Z,0
2017-01-15T06:23:03.370Z,0
2017-01-15T06:24:04.113Z,0
2017-01-15T06:25:04.881Z,0
2017-01-15T06:26:05.633Z,0
2017-01-15T06:27:06.384Z,0
2017-01-15T06:28:07.145Z,0
2017-01-15T06:29:07.899Z,0
2017-01-15T06:30:08.671Z,0
2017-01-15T06:31:09.433Z,0
2017-01-15T06:32:10.166Z,0
2017-01-15T06:33:10.957Z,0
2017-01-15T06:34:11.711Z,0
2017-01-15T06:35:12.461Z,0
2017-01-15T06:36:13.192Z,0
2017-01-15T06:37:13.966Z,0
2017-01-15T06:38:14.727Z,0
2017-01-15T06:39:15.468Z,0
2017-01-15T06:40:16.218Z,0
2017-01-15T06:41:16.961Z,0
2017-01-15T06:42:17.725Z,0
2017-01-15T06:43:18.485Z,0
2017-01-15T06:44:19.225Z,0
2017-01-15T06:45:20.016Z,0
2017-01-15T06:46:20.766Z,0
2017-01-15T06:47:21.510Z,0
2017-01-15T06:48:22.285Z,0
2017-01-15T06:49:23.036Z,0
2017-01-15T06:50:23.788Z,0
2017-01-15T06:51:24.552Z,0
2017-01-15T06:52:25.289Z,0
2017-01-15T06:53:26.082Z,0
2017-01-15T06:54:26.824Z,0
2017-01-15T06:55:27.581Z,0
2017-01-15T06:56:28.331Z,0
2017-01-15T06:57:29.104Z,0
2017-01-15T06:58:29.852Z,0
2017-01-15T06:59:30.608Z,0
2017-01-15T07:00:31.342Z,0
2017-01-15T07:01:32.100Z,0
2017-01-15T07:02:32.842Z,0
2017-01-15T07:03:33.612Z,0
2017-01-15T07:04:34.336Z,0
2017-01-15T07:05:35.092Z,0
2017-01-15T07:06:35.858Z,0
2017-01-15T07:07:36.606Z,0
2017-01-15T07:08:37.377Z,0
2017-01-15T07:09:38.145Z,0
2017-01-15T07:10:38.924Z,0
2017-01-15T07:11:39.659Z,0
2017-01-15T07:12:40.412Z,0
2017-01-15T07:13:41.163Z,0
2017-01-15T07:14:41.901Z,0
2017-01-15T07:15:42.651Z,0
2017-01-15T07:16:43.441Z,0
2017-01-15T07:17:44.195Z,0
2017-01-15T07:18:44.937Z,0
2017-01-15T07:19:45.694Z,0
2017-01-15T07:20:46.456Z,0
2017-01-15T07:21:47.266Z,0
2017-01-15T07:22:48.055Z,0
2017-01-15T07:23:48.826Z,5
2017-01-15T07:24:49.586Z,5
2017-01-15T07:25:50.359Z,5
2017-01-15T07:26:51.100Z,5
2017-01-15T07:27:51.850Z,5
2017-01-15T07:28:52.607Z,5
2017-01-15T07:29:53.344Z,5
2017-01-15T07:30:54.094Z,5
2017-01-15T07:31:54.846Z,5
2017-01-15T07:32:55.681Z,5
2017-01-15T07:33:56.421Z,5
2017-01-15T07:34:57.176Z,5
2017-01-15T07:35:57.928Z,5
2017-01-15T07:36:58.680Z,10
2017-01-15T07:37:59.422Z,10
2017-01-15T07:39:00.171Z,10
2017-01-15T07:40:00.932Z,10
2017-01-15T07:41:01.667Z,10
2017-01-15T07:42:02.410Z,10
2017-01-15T07:43:03.165Z,10
2017-01-15T07:44:03.908Z,10
2017-01-15T07:45:04.654Z,15
2017-01-15T07:46:05.404Z,15
2017-01-15T07:47:06.158Z,15
2017-01-15T07:48:06.912Z,15
2017-01-15T07:49:07.647Z,15
2017-01-15T07:50:08.403Z,20
2017-01-15T07:51:09.138Z,20
2017-01-15T07:52:09.893Z,20
2017-01-15T07:53:10.636Z,20
2017-01-15T07:54:11.414Z,20
2017-01-15T07:55:12.164Z,25
2017-01-15T07:56:12.901Z,25
2017-01-15T07:57:13.649Z,30
2017-01-15T07:58:14.389Z,30
2017-01-15T07:59:15.128Z,35
2017-01-15T08:00:15.892Z,40
2017-01-15T08:01:16.629Z,40
2017-01-15T08:02:17.366Z,40
2017-01-15T08:03:18.121Z,40
2017-01-15T08:04:18.874Z,40
2017-01-15T08:05:19.638Z,45
2017-01-15T08:06:20.394Z,50
2017-01-15T08:07:21.134Z,50
2017-01-15T08:08:21.892Z,55
2017-01-15T08:09:22.636Z,55
2017-01-15T08:10:23.385Z,60
2017-01-15T08:11:24.131Z,60
2017-01-15T08:12:24.920Z,65
2017-01-15T08:13:25.669Z,65
2017-01-15T08:14:26.421Z,65
2017-01-15T08:15:27.181Z,65
2017-01-15T08:16:27.936Z,65
2017-01-15T08:17:28.673Z,70
2017-01-15T08:18:29.425Z,70
2017-01-15T08:19:30.160Z,70
2017-01-15T08:20:30.930Z,65
2017-01-15T08:21:31.676Z,65
2017-01-15T08:22:32.427Z,65
2017-01-15T08:23:33.163Z,65
2017-01-15T08:24:33.923Z,65
2017-01-15T08:25:34.700Z,65
2017-01-15T08:26:35.463Z,65
2017-01-15T08:27:36.241Z,65
2017-01-15T08:28:36.994Z,70
2017-01-15T08:29:37.724Z,70
2017-01-15T08:30:38.476Z,75
2017-01-15T08:31:39.221Z,70
2017-01-15T08:32:40.115Z,70
2017-01-15T08:33:40.852Z,65
2017-01-15T08:34:41.595Z,60
2017-01-15T08:35:42.343Z,60
2017-01-15T08:36:43.105Z,65
2017-01-15T08:37:43.867Z,65
2017-01-15T08:38:44.620Z,70
2017-01-15T08:39:45.406Z,70
2017-01-15T08:40:46.147Z,70
2017-01-15T08:41:46.908Z,75
2017-01-15T08:42:47.705Z,75
2017-01-15T08:43:48.452Z,75
2017-01-15T08:44:49.232Z,75
2017-01-15T08:45:50.555Z,75
2017-01-15T08:46:51.320Z,80
2017-01-15T08:47:52.079Z,75
2017-01-15T08:48:52.847Z,75
2017-01-15T08:49:53.606Z,75
2017-01-15T08:50:54.363Z,70
2017-01-15T08:51:55.112Z,65
2017-01-15T08:52:55.861Z,65
2017-01-15T08:53:56.620Z,60
2017-01-15T08:54:57.416Z,65
2017-01-15T08:55:58.154Z,75
2017-01-15T08:56:58.892Z,80
2017-01-15T08:57:59.651Z,80
2017-01-15T08:59:00.485Z,70
2017-01-15T09:00:01.228Z,65
2017-01-15T09:01:01.998Z,60
2017-01-15T09:02:02.781Z,60
2017-01-15T09:03:03.553Z,60
2017-01-15T09:04:04.314Z,60
2017-01-15T09:05:05.149Z,60
2017-01-15T09:06:05.901Z,60
2017-01-15T09:07:06.647Z,60
2017-01-15T09:08:07.450Z,60
2017-01-15T09:09:08.207Z,65
2017-01-15T09:10:08.973Z,70
2017-01-15T09:11:09.718Z,75
2017-01-15T09:12:10.520Z,75
2017-01-15T09:13:11.297Z,75
2017-01-15T09:14:12.067Z,70
2017-01-15T09:15:12.812Z,70
2017-01-15T09:16:13.572Z,70
2017-01-15T09:17:14.323Z,70
2017-01-15T09:18:15.084Z,65
2017-01-15T09:19:15.828Z,65
2017-01-15T09:20:16.603Z,70
2017-01-15T09:21:17.363Z,75
2017-01-15T09:22:18.107Z,70
2017-01-15T09:23:18.865Z,75
2017-01-15T09:24:19.617Z,85
2017-01-15T09:25:20.361Z,80
2017-01-15T09:26:21.111Z,75
2017-01-15T09:27:21.859Z,75
2017-01-15T09:28:22.617Z,80
2017-01-15T09:29:23.359Z,85
2017-01-15T09:30:24.103Z,85
2017-01-15T09:31:24.870Z,90
2017-01-15T09:32:25.627Z,95
2017-01-15T09:33:26.425Z,100
2017-01-15T09:34:27.160Z,100
2017-01-15T09:35:27.940Z,105
2017-01-15T09:36:28.691Z,110
2017-01-15T09:37:29.433Z,115
2017-01-15T09:38:30.187Z,120
2017-01-15T09:39:30.962Z,120
2017-01-15T09:40:31.723Z,115
2017-01-15T09:41:32.469Z,110
2017-01-15T09:42:33.242Z,100
2017-01-15T09:43:34.007Z,100
2017-01-15T09:44:34.778Z,100
2017-01-15T09:45:35.521Z,105
2017-01-15T09:46:36.950Z,115
2017-01-15T09:47:37.738Z,125
2017-01-15T09:48:38.498Z,135
2017-01-15T09:49:39.314Z,150
2017-01-15T09:50:40.028Z,155
2017-01-15T09:51:40.778Z,150
2017-01-15T09:52:41.540Z,145
2017-01-15T09:53:42.307Z,145
2017-01-15T09:54:43.070Z,145
2017-01-15T09:55:43.881Z,150
2017-01-15T09:56:44.844Z,155
2017-01-15T09:57:45.617Z,165
2017-01-15T09:58:46.391Z,165
2017-01-15T09:59:47.262Z,160
2017-01-15T10:00:48.810Z,155
2017-01-15T10:01:48.955Z,155
2017-01-15T10:02:49.768Z,160
2017-01-15T10:03:50.546Z,160
2017-01-15T10:04:51.318Z,155
2017-01-15T10:05:52.109Z,145
2017-01-15T10:06:53.218Z,140
2017-01-15T10:07:54.006Z,135
2017-01-15T10:08:55.311Z,135
2017-01-15T10:09:55.675Z,125
2017-01-15T10:10:56.445Z,120
2017-01-15T10:11:57.229Z,115
2017-01-15T10:12:57.986Z,115
2017-01-15T10:13:58.781Z,120
2017-01-15T10:14:59.723Z,120
2017-01-15T10:16:00.393Z,125
2017-01-15T10:17:01.160Z,120
2017-01-15T10:18:01.945Z,120
2017-01-15T10:19:02.712Z,120
2017-01-15T10:20:03.491Z,125
2017-01-15T10:21:04.236Z,125
2017-01-15T10:22:05.000Z,130
2017-01-15T10:23:05.832Z,125
2017-01-15T10:24:06.595Z,130
2017-01-15T10:25:08.056Z,135
2017-01-15T10:26:09.147Z,140
2017-01-15T10:27:09.890Z,145
2017-01-15T10:28:10.689Z,145
2017-01-15T10:29:11.423Z,150
2017-01-15T10:30:12.342Z,155
2017-01-15T10:31:13.677Z,155
2017-01-15T10:32:14.006Z,160
2017-01-15T10:33:14.788Z,155
2017-01-15T10:34:15.755Z,155
2017-01-15T10:35:16.442Z,155
2017-01-15T10:36:17.189Z,155
2017-01-15T10:37:18.126Z,150
2017-01-15T10:38:19.001Z,150
2017-01-15T10:39:19.500Z,155
2017-01-15T10:40:20.266Z,150
2017-01-15T10:41:21.101Z,145
2017-01-15T10:42:21.920Z,140
2017-01-15T10:43:22.722Z,145
2017-01-15T10:44:23.520Z,145
2017-01-15T10:45:24.284Z,140
2017-01-15T10:46:25.046Z,135
2017-01-15T10:47:25.810Z,135
2017-01-15T10:48:26.576Z,135
2017-01-15T10:49:27.324Z,135
2017-01-15T10:50:28.092Z,140
2017-01-15T10:51:28.856Z,130
2017-01-15T10:52:29.629Z,125
2017-01-15T10:53:30.393Z,125
2017-01-15T10:54:31.141Z,125
2017-01-15T10:55:31.887Z,130
2017-01-15T10:56:32.665Z,150
2017-01-15T10:57:33.431Z,170
2017-01-15T10:58:34.162Z,195
2017-01-15T10:59:34.936Z,210
2017-01-15T11:00:35.710Z,215
2017-01-15T11:01:36.454Z,220
2017-01-15T11:02:37.203Z,235
2017-01-15T11:03:37.972Z,230
2017-01-15T11:04:38.726Z,220
2017-01-15T11:05:39.504Z,225
2017-01-15T11:06:40.269Z,235
2017-01-15T11:07:41.031Z,245
2017-01-15T11:08:41.789Z,250
2017-01-15T11:09:42.544Z,240
2017-01-15T11:10:43.314Z,240
2017-01-15T11:11:44.062Z,250
2017-01-15T11:12:44.817Z,265
2017-01-15T11:13:45.565Z,270
2017-01-15T11:14:46.321Z,270
2017-01-15T11:15:47.070Z,280
2017-01-15T11:16:47.860Z,280
2017-01-15T11:17:48.610Z,285
2017-01-15T11:18:49.472Z,290
2017-01-15T11:19:50.256Z,295
2017-01-15T11:20:51.049Z,290
2017-01-15T11:21:51.824Z,295
2017-01-15T11:22:52.604Z,310
2017-01-15T11:23:53.369Z,305
2017-01-15T11:24:54.152Z,295
2017-01-15T11:25:54.897Z,265
2017-01-15T11:26:55.791Z,245
2017-01-15T11:27:56.543Z,230
2017-01-15T11:28:57.288Z,230
2017-01-15T11:29:58.054Z,230
2017-01-15T11:30:58.807Z,235
2017-01-15T11:31:59.555Z,230
2017-01-15T11:33:00.323Z,215
2017-01-15T11:34:01.085Z,205
2017-01-15T11:35:01.835Z,205
2017-01-15T11:36:02.586Z,220
2017-01-15T11:37:03.318Z,230
2017-01-15T11:38:04.078Z,235
2017-01-15T11:39:04.863Z,225
2017-01-15T11:40:05.743Z,215
2017-01-15T11:41:06.508Z,205
2017-01-15T11:42:07.267Z,200
2017-01-15T11:43:08.061Z,210
2017-01-15T11:44:08.836Z,225
2017-01-15T11:45:09.608Z,240
2017-01-15T11:46:10.362Z,245
2017-01-15T11:47:11.126Z,250
2017-01-15T11:48:11.874Z,255
2017-01-15T11:49:12.651Z,265
2017-01-15T11:50:13.385Z,265
2017-01-15T11:51:14.155Z,255
2017-01-15T11:52:14.905Z,250
2017-01-15T11:53:15.639Z,250
2017-01-15T11:54:16.433Z,240
2017-01-15T11:55:17.196Z,240
2017-01-15T11:56:17.953Z,250
2017-01-15T11:57:18.713Z,250
2017-01-15T11:58:19.463Z,240
2017-01-15T11:59:20.207Z,230
2017-01-15T12:00:20.962Z,220
2017-01-15T12:01:21.727Z,225
2017-01-15T12:02:22.497Z,220
2017-01-15T12:03:23.259Z,210
2017-01-15T12:04:24.016Z,225
2017-01-15T12:05:24.780Z,230
2017-01-15T12:06:25.551Z,240
2017-01-15T12:07:26.312Z,235
2017-01-15T12:08:27.064Z,235
2017-01-15T12:09:27.834Z,225
2017-01-15T12:10:28.582Z,215
2017-01-15T12:11:29.335Z,210
2017-01-15T12:12:30.100Z,210
2017-01-15T12:13:30.871Z,205
2017-01-15T12:14:31.621Z,210
2017-01-15T12:15:32.413Z,215
2017-01-15T12:16:33.210Z,210
2017-01-15T12:17:33.954Z,220
2017-01-15T12:18:34.729Z,230
2017-01-15T12:19:35.510Z,240
2017-01-15T12:20:36.278Z,235
2017-01-15T12:21:37.032Z,225
2017-01-15T12:22:37.771Z,220
2017-01-15T12:23:38.522Z,220
2017-01-15T12:24:39.282Z,215
2017-01-15T12:25:40.056Z,230
2017-01-15T12:26:40.797Z,250
2017-01-15T12:27:41.581Z,260
2017-01-15T12:28:42.327Z,245
2017-01-15T12:29:43.090Z,240
2017-01-15T12:30:43.832Z,230
2017-01-15T12:31:44.585Z,225
2017-01-15T12:32:45.348Z,240
2017-01-15T12:33:46.120Z,235
2017-01-15T12:34:46.891Z,215
2017-01-15T12:35:47.644Z,205
2017-01-15T12:36:48.399Z,200
2017-01-15T12:37:49.138Z,195
2017-01-15T12:38:49.915Z,205
2017-01-15T12:39:50.699Z,205
2017-01-15T12:40:51.423Z,205
2017-01-15T12:41:52.216Z,190
2017-01-15T12:42:52.986Z,190
2017-01-15T12:43:53.744Z,200
2017-01-15T12:44:54.518Z,205
2017-01-15T12:45:55.290Z,200
2017-01-15T12:46:56.055Z,180
2017-01-15T12:47:56.819Z,170
2017-01-15T12:48:57.606Z,160
2017-01-15T12:49:58.374Z,150
2017-01-15T12:50:59.140Z,135
2017-01-15T12:51:59.930Z,135
2017-01-15T12:53:00.703Z,135
2017-01-15T12:54:01.446Z,140
2017-01-15T12:55:02.212Z,135
2017-01-15T12:56:02.963Z,135
2017-01-15T12:57:03.712Z,130
2017-01-15T12:58:04.480Z,130
2017-01-15T12:59:05.238Z,125
2017-01-15T13:00:05.995Z,120
2017-01-15T13:01:07.001Z,130
2017-01-15T13:02:07.727Z,140
2017-01-15T13:03:08.531Z,140
2017-01-15T13:04:09.257Z,140
2017-01-15T13:05:10.047Z,135
2017-01-15T13:06:10.821Z,135
2017-01-15T13:07:11.662Z,150
2017-01-15T13:08:12.462Z,150
2017-01-15T13:09:13.202Z,135
2017-01-15T13:10:13.967Z,140
2017-01-15T13:11:14.726Z,145
2017-01-15T13:12:15.481Z,145
2017-01-15T13:13:16.239Z,135
2017-01-15T13:14:17.001Z,135
2017-01-15T13:15:17.749Z,145
2017-01-15T13:16:18.500Z,140
2017-01-15T13:17:19.252Z,130
2017-01-15T13:18:20.017Z,130
2017-01-15T13:19:20.774Z,140
2017-01-15T13:20:21.512Z,155
2017-01-15T13:21:22.276Z,155
2017-01-15T13:22:23.052Z,140
2017-01-15T13:23:23.808Z,145
2017-01-15T13:24:24.577Z,150
2017-01-15T13:25:25.357Z,150
2017-01-15T13:26:26.113Z,145
2017-01-15T13:27:26.899Z,145
2017-01-15T13:28:27.678Z,145
2017-01-15T13:29:28.440Z,145
2017-01-15T13:30:29.238Z,150
2017-01-15T13:31:29.978Z,155
2017-01-15T13:32:30.746Z,150
2017-01-15T13:33:31.602Z,140
2017-01-15T13:34:32.411Z,140
2017-01-15T13:35:33.128Z,135
2017-01-15T13:36:33.911Z,120
2017-01-15T13:37:34.752Z,120
2017-01-15T13:38:35.469Z,120
2017-01-15T13:39:36.273Z,120
2017-01-15T13:40:37.035Z,115
2017-01-15T13:41:37.815Z,115
2017-01-15T13:42:38.564Z,115
2017-01-15T13:43:39.332Z,110
2017-01-15T13:44:40.130Z,110
2017-01-15T13:45:40.864Z,105
2017-01-15T13:46:41.628Z,105
2017-01-15T13:47:42.406Z,100
2017-01-15T13:48:43.156Z,100
2017-01-15T13:49:43.914Z,100
2017-01-15T13:50:44.733Z,100
2017-01-15T13:51:45.577Z,100
2017-01-15T13:52:47.331Z,100
2017-01-15T13:53:48.220Z,100
2017-01-15T13:54:49.004Z,100
2017-01-15T13:55:49.791Z,100
2017-01-15T13:56:50.635Z,95
2017-01-15T13:57:51.953Z,95
2017-01-15T13:58:52.726Z,95
2017-01-15T13:59:53.518Z,95
2017-01-15T14:00:54.299Z,95
2017-01-15T14:01:55.061Z,100
2017-01-15T14:02:55.827Z,95
2017-01-15T14:03:56.586Z,95
2017-01-15T14:04:57.360Z,95
2017-01-15T14:05:58.124Z,95
2017-01-15T14:06:58.897Z,95
2017-01-15T14:07:59.656Z,90
2017-01-15T14:09:01.088Z,85
2017-01-15T14:10:01.911Z,85
2017-01-15T14:11:02.599Z,85
2017-01-15T14:12:03.365Z,85
2017-01-15T14:13:04.106Z,80
2017-01-15T14:14:04.864Z,80
2017-01-15T14:15:05.664Z,80
2017-01-15T14:16:06.429Z,80
2017-01-15T14:17:07.204Z,80
2017-01-15T14:18:07.984Z,80
2017-01-15T14:19:08.759Z,80
2017-01-15T14:20:09.529Z,75
2017-01-15T14:21:10.291Z,75
2017-01-15T14:22:11.057Z,75
2017-01-15T14:23:11.871Z,75
2017-01-15T14:24:12.632Z,75
2017-01-15T14:25:13.411Z,75
2017-01-15T14:26:14.162Z,70
2017-01-15T14:27:14.952Z,70
2017-01-15T14:28:15.727Z,70
2017-01-15T14:29:16.500Z,70
2017-01-15T14:30:17.272Z,70
2017-01-15T14:31:18.030Z,70
2017-01-15T14:32:18.803Z,70
2017-01-15T14:33:19.541Z,70